Time;durP1;ratioP1;P1;durP2;ratioP2;P2;SDS_P1;SDS_P2;PMS_P1;PMS_P2;Temp;Humidity;BMP_temperature;BMP_pressure;BME280_temperature;BME280_humidity;BME280_pressure;Samples;Min_cycle;Max_cycle;Signal;HPM_P1;HPM_P2
2022/09/13 00:00:36;;;;;;;1.60;1.23;;;17.90;99.90;;;;;;5029247;28;20865;-75
2022/09/13 00:03:02;;;;;;;1.50;1.00;;;17.90;99.90;;;;;;5030387;28;20445;-76
2022/09/13 00:05:29;;;;;;;5.17;1.40;;;17.90;99.90;;;;;;5030261;28;20522;-75
2022/09/13 00:07:55;;;;;;;2.10;1.03;;;17.90;99.90;;;;;;5030398;28;20218;-76
2022/09/13 00:10:21;;;;;;;4.10;1.30;;;17.90;99.90;;;;;;5030316;28;20481;-75
2022/09/13 00:12:48;;;;;;;1.13;0.90;;;18.00;99.90;;;;;;5030660;28;20461;-76
2022/09/13 00:15:14;;;;;;;1.67;0.90;;;18.00;99.90;;;;;;5030507;28;20448;-76
2022/09/13 00:17:40;;;;;;;1.00;0.90;;;18.00;99.90;;;;;;5030503;28;20817;-75
2022/09/13 00:20:07;;;;;;;8.20;1.40;;;18.00;99.90;;;;;;5030542;28;20481;-75
2022/09/13 00:22:33;;;;;;;2.37;1.27;;;18.10;99.90;;;;;;5028959;28;20956;-76
2022/09/13 00:24:59;;;;;;;1.00;0.90;;;18.20;99.90;;;;;;5029128;28;20523;-77
2022/09/13 00:27:25;;;;;;;1.30;0.80;;;18.10;99.90;;;;;;5029903;28;20451;-78
2022/09/13 00:29:50;;;;;;;5.23;1.03;;;18.10;99.90;;;;;;5029936;28;20463;-78
2022/09/13 00:32:16;;;;;;;1.37;0.80;;;18.10;99.90;;;;;;5029598;28;20214;-78
2022/09/13 00:34:42;;;;;;;3.40;1.30;;;18.10;99.90;;;;;;5029856;28;20193;-78
2022/09/13 00:37:07;;;;;;;1.57;0.83;;;18.10;99.90;;;;;;5030980;28;20187;-78
2022/09/13 00:39:34;;;;;;;2.87;0.87;;;18.10;99.90;;;;;;5012906;28;20557;-78
2022/09/13 00:42:00;;;;;;;1.30;0.80;;;18.10;99.90;;;;;;5013228;28;20214;-78
2022/09/13 00:45:03;;;;;;;2.10;0.90;;;18.10;99.90;;;;;;5013293;28;20480;-78
2022/09/13 00:47:36;;;;;;;1.00;0.90;;;18.10;99.90;;;;;;5029487;28;20211;-77
2022/09/13 00:50:27;;;;;;;1.33;0.70;;;18.20;99.90;;;;;;5030363;28;20480;-77
2022/09/13 00:53:16;;;;;;;1.20;0.80;;;18.20;99.90;;;;;;5028959;28;20446;-77
2022/09/13 00:56:08;;;;;;;1.47;1.23;;;18.20;99.90;;;;;;5029315;28;20424;-77
2022/09/13 00:58:38;;;;;;;1.13;0.90;;;18.20;99.90;;;;;;5030410;28;20445;-76
2022/09/13 01:01:11;;;;;;;1.07;0.80;;;18.10;99.90;;;;;;5028564;28;20427;-76
2022/09/13 01:03:38;;;;;;;0.80;0.80;;;18.10;99.90;;;;;;5030231;28;20419;-76
2022/09/13 01:06:11;;;;;;;1.73;0.80;;;18.00;99.90;;;;;;5030268;28;20600;-77
2022/09/13 01:08:41;;;;;;;1.13;0.80;;;18.00;99.90;;;;;;5029813;28;20426;-76
2022/09/13 01:11:26;;;;;;;1.13;0.90;;;18.00;99.90;;;;;;5028663;28;20427;-76
2022/09/13 01:13:54;;;;;;;1.40;1.00;;;17.90;99.90;;;;;;5028695;28;21050;-76
2022/09/13 01:16:20;;;;;;;1.10;0.73;;;17.80;99.90;;;;;;5032275;28;20510;-76
2022/09/13 01:18:46;;;;;;;1.33;0.83;;;17.70;99.90;;;;;;5030154;28;21181;-76
2022/09/13 01:21:49;;;;;;;1.00;0.90;;;17.60;99.90;;;;;;5031443;28;20792;-76
2022/09/13 01:24:20;;;;;;;1.20;0.90;;;17.70;99.90;;;;;;5039809;28;20194;-77
2022/09/13 01:27:11;;;;;;;1.50;0.77;;;17.60;99.90;;;;;;5047199;28;20465;-76
2022/09/13 01:30:10;;;;;;;6.60;1.03;;;17.70;99.90;;;;;;5047221;28;20560;-76
2022/09/13 01:33:03;;;;;;;3.20;1.10;;;17.70;99.90;;;;;;5047297;28;20458;-76
2022/09/13 01:35:49;;;;;;;2.77;1.50;;;17.70;99.90;;;;;;5029555;28;20485;-76
2022/09/13 01:38:20;;;;;;;3.30;1.00;;;17.80;99.90;;;;;;5030626;28;20452;-76
2022/09/13 01:41:06;;;;;;;5.50;1.17;;;17.90;99.90;;;;;;5030282;28;20449;-76
2022/09/13 01:43:50;;;;;;;1.40;0.80;;;18.10;99.90;;;;;;5029514;28;20723;-76
2022/09/13 01:46:29;;;;;;;2.77;1.17;;;18.20;99.90;;;;;;5029531;28;20848;-76
2022/09/13 01:49:29;;;;;;;1.00;0.90;;;18.10;99.90;;;;;;5029220;28;20792;-76
2022/09/13 01:52:20;;;;;;;1.23;0.87;;;18.10;99.90;;;;;;5029900;28;20432;-76
2022/09/13 01:55:09;;;;;;;1.07;0.97;;;18.10;99.90;;;;;;5029836;28;20442;-76
2022/09/13 01:58:15;;;;;;;1.27;1.00;;;18.00;99.90;;;;;;5029816;28;20947;-76
2022/09/13 02:00:56;;;;;;;2.97;1.13;;;17.80;99.90;;;;;;5016837;28;20430;-76
2022/09/13 02:03:45;;;;;;;1.93;1.40;;;17.80;99.90;;;;;;5029877;28;20428;-76
2022/09/13 02:06:16;;;;;;;2.70;1.57;;;17.50;99.90;;;;;;5024259;28;20474;-75
2022/09/13 02:08:46;;;;;;;2.90;1.70;;;17.10;99.90;;;;;;5029538;28;20441;-77
2022/09/13 02:11:19;;;;;;;3.90;1.87;;;16.90;99.90;;;;;;5028570;28;20431;-75
2022/09/13 02:13:50;;;;;;;2.23;2.13;;;16.70;99.90;;;;;;5029418;28;20453;-76
2022/09/13 02:16:44;;;;;;;2.03;1.70;;;16.40;99.90;;;;;;5030206;28;20428;-77
2022/09/13 02:19:15;;;;;;;2.30;2.10;;;16.20;99.90;;;;;;5013245;28;20525;-77
2022/09/13 02:21:45;;;;;;;2.10;1.90;;;16.00;99.90;;;;;;5030541;28;20469;-76
2022/09/13 02:24:39;;;;;;;5.23;2.00;;;15.90;99.90;;;;;;5033901;28;20540;-77
2022/09/13 02:27:13;;;;;;;3.60;2.20;;;15.70;99.90;;;;;;5031567;28;20854;-76
2022/09/13 02:29:44;;;;;;;6.40;2.00;;;15.70;99.90;;;;;;5033667;28;20433;-77
2022/09/13 02:32:22;;;;;;;2.87;1.53;;;15.70;99.90;;;;;;5033568;28;21000;-77
2022/09/13 02:34:57;;;;;;;6.43;2.13;;;15.50;99.90;;;;;;5033227;28;20425;-76
2022/09/13 02:37:24;;;;;;;4.47;2.30;;;15.40;99.90;;;;;;5033128;28;20455;-77
2022/09/13 02:39:55;;;;;;;2.43;2.00;;;15.30;99.90;;;;;;5032919;28;20424;-77
2022/09/13 02:42:31;;;;;;;2.80;1.80;;;15.30;99.90;;;;;;5032903;28;20875;-77
2022/09/13 02:44:58;;;;;;;2.23;2.03;;;15.10;99.90;;;;;;5032952;28;20773;-77
2022/09/13 02:47:42;;;;;;;1.90;1.67;;;15.30;99.90;;;;;;5033122;28;20422;-77
2022/09/13 02:50:14;;;;;;;2.23;2.03;;;15.10;99.90;;;;;;5033171;28;20463;-77
2022/09/13 02:52:49;;;;;;;3.13;2.70;;;15.00;99.90;;;;;;5031295;28;20453;-77
2022/09/13 02:55:37;;;;;;;8.13;1.80;;;14.90;99.90;;;;;;5032778;28;20416;-76
2022/09/13 02:58:49;;;;;;;3.03;2.10;;;14.80;99.90;;;;;;5032590;28;20516;-75
2022/09/13 03:01:15;;;;;;;3.00;1.43;;;14.80;99.90;;;;;;5029376;28;20431;-76
2022/09/13 03:03:42;;;;;;;2.83;1.80;;;14.70;99.90;;;;;;5032621;28;20446;-76
2022/09/13 03:06:08;;;;;;;2.47;2.27;;;14.70;99.90;;;;;;5032383;28;20878;-75
2022/09/13 03:08:35;;;;;;;1.90;1.73;;;14.60;99.90;;;;;;5032472;28;20476;-77
2022/09/13 03:11:06;;;;;;;2.27;1.93;;;14.60;99.90;;;;;;5032410;28;20558;-75
2022/09/13 03:13:42;;;;;;;3.67;2.10;;;14.50;99.90;;;;;;5032269;28;20531;-76
2022/09/13 03:16:33;;;;;;;3.40;1.87;;;14.40;99.90;;;;;;5030915;28;20435;-77
2022/09/13 03:19:13;;;;;;;3.20;1.90;;;14.30;99.90;;;;;;5032255;28;20904;-76
2022/09/13 03:21:53;;;;;;;6.10;1.60;;;14.30;99.90;;;;;;5030446;28;20460;-75
2022/09/13 03:24:46;;;;;;;2.10;2.00;;;14.30;99.90;;;;;;5033598;28;20412;-76
2022/09/13 03:27:40;;;;;;;2.10;1.90;;;14.30;99.90;;;;;;5032387;28;20447;-75
2022/09/13 03:30:12;;;;;;;6.53;2.30;;;14.20;99.90;;;;;;5031755;28;20488;-75
2022/09/13 03:32:46;;;;;;;1.63;1.47;;;14.10;99.90;;;;;;5031002;28;20520;-76
2022/09/13 03:35:38;;;;;;;4.00;1.60;;;14.10;99.90;;;;;;5031599;28;20414;-76
2022/09/13 03:38:19;;;;;;;2.27;1.73;;;13.90;99.90;;;;;;5031597;28;20451;-75
2022/09/13 03:41:03;;;;;;;1.97;1.77;;;13.90;99.90;;;;;;5030311;28;20553;-75
2022/09/13 03:43:35;;;;;;;1.90;1.53;;;13.90;99.90;;;;;;5031919;28;20420;-76
2022/09/13 03:46:10;;;;;;;3.20;1.40;;;13.90;99.90;;;;;;5031847;28;20458;-75
2022/09/13 03:48:38;;;;;;;2.23;2.03;;;13.90;99.90;;;;;;5032016;28;20411;-76
2022/09/13 03:51:05;;;;;;;1.93;1.70;;;13.90;99.90;;;;;;5031738;28;20416;-76
2022/09/13 03:53:34;;;;;;;2.00;1.60;;;13.80;99.90;;;;;;5032078;28;20468;-75
2022/09/13 03:56:00;;;;;;;1.73;1.50;;;13.90;99.90;;;;;;5032015;28;20443;-76
2022/09/13 03:58:26;;;;;;;4.63;1.90;;;13.80;99.90;;;;;;5031916;28;20897;-76
2022/09/13 04:00:53;;;;;;;5.17;2.37;;;13.80;99.90;;;;;;5031951;28;20180;-76
2022/09/13 04:03:19;;;;;;;1.70;1.60;;;13.70;99.90;;;;;;5032311;28;20219;-76
2022/09/13 04:05:45;;;;;;;7.40;2.00;;;13.70;99.90;;;;;;5032706;28;20466;-76
2022/09/13 04:08:11;;;;;;;1.70;1.60;;;13.70;99.90;;;;;;5030871;28;20195;-76
2022/09/13 04:10:37;;;;;;;2.07;1.60;;;13.70;99.90;;;;;;5032612;28;20439;-76
2022/09/13 04:13:03;;;;;;;2.00;1.90;;;13.70;99.90;;;;;;5032183;28;20237;-75
2022/09/13 04:15:30;;;;;;;1.70;1.60;;;13.70;99.90;;;;;;5032215;28;20185;-75
2022/09/13 04:17:56;;;;;;;1.90;1.63;;;13.70;99.90;;;;;;5032026;28;20920;-76
2022/09/13 04:20:21;;;;;;;2.00;1.70;;;13.80;99.90;;;;;;5031704;28;20442;-76
2022/09/13 04:22:54;;;;;;;5.73;1.73;;;13.70;99.90;;;;;;5029724;28;20486;-76
2022/09/13 04:25:21;;;;;;;3.37;1.60;;;13.80;99.90;;;;;;5031223;28;20780;-76
2022/09/13 04:27:48;;;;;;;2.93;1.83;;;13.80;99.90;;;;;;5029392;28;20418;-76
2022/09/13 04:30:14;;;;;;;5.27;2.13;;;13.70;99.90;;;;;;5012900;28;20788;-76
2022/09/13 04:32:42;;;;;;;2.60;1.70;;;13.70;99.90;;;;;;5030656;28;20949;-77
2022/09/13 04:35:09;;;;;;;2.30;1.83;;;13.70;99.90;;;;;;5029242;28;20427;-78
2022/09/13 04:37:34;;;;;;;2.70;1.60;;;13.50;99.90;;;;;;5030250;28;20979;-76
2022/09/13 04:40:00;;;;;;;4.30;1.73;;;13.50;99.90;;;;;;5030423;28;20421;-76
2022/09/13 04:42:26;;;;;;;6.30;2.00;;;13.50;99.90;;;;;;5030083;28;20204;-76
2022/09/13 04:44:51;;;;;;;3.20;2.03;;;13.50;99.90;;;;;;5011619;28;20247;-77
2022/09/13 04:47:17;;;;;;;2.33;1.90;;;13.50;99.90;;;;;;5028695;28;20208;-75
2022/09/13 04:49:43;;;;;;;4.73;1.80;;;13.40;99.90;;;;;;5028685;28;20267;-77
2022/09/13 04:52:09;;;;;;;3.00;1.90;;;13.30;99.90;;;;;;5028447;28;20530;-76
2022/09/13 04:54:34;;;;;;;2.03;1.83;;;13.20;99.90;;;;;;5028617;28;20746;-78
2022/09/13 04:57:00;;;;;;;2.43;2.00;;;13.10;99.90;;;;;;5028468;28;20665;-77
2022/09/13 04:59:26;;;;;;;1.57;1.47;;;13.30;99.90;;;;;;5010765;28;20185;-76
2022/09/13 05:01:52;;;;;;;2.33;2.13;;;13.20;99.90;;;;;;5028410;28;20262;-77
2022/09/13 05:04:17;;;;;;;1.93;1.83;;;13.20;99.90;;;;;;5028277;28;20903;-77
2022/09/13 05:06:43;;;;;;;2.80;2.10;;;13.20;99.90;;;;;;5028204;28;20315;-76
2022/09/13 05:09:14;;;;;;;3.53;1.90;;;13.10;99.90;;;;;;5028373;28;20176;-76
2022/09/13 05:11:40;;;;;;;2.80;1.57;;;12.80;99.90;;;;;;5028188;28;20208;-77
2022/09/13 05:14:06;;;;;;;7.17;1.63;;;13.20;99.90;;;;;;5027086;28;20950;-76
2022/09/13 05:16:32;;;;;;;3.33;1.70;;;13.30;99.90;;;;;;5027216;28;20530;-76
2022/09/13 05:18:59;;;;;;;1.90;1.80;;;13.30;99.90;;;;;;5028703;28;20180;-77
2022/09/13 05:21:26;;;;;;;3.00;1.50;;;13.40;99.90;;;;;;5028449;28;20415;-77
2022/09/13 05:23:53;;;;;;;2.20;2.00;;;13.50;99.90;;;;;;5011415;28;20447;-77
2022/09/13 05:26:21;;;;;;;3.20;1.70;;;13.60;99.90;;;;;;5011364;28;20466;-76
2022/09/13 05:28:47;;;;;;;2.10;1.90;;;13.80;99.90;;;;;;5027402;28;20826;-77
2022/09/13 05:31:15;;;;;;;7.10;1.97;;;13.80;99.90;;;;;;5027067;28;20427;-77
2022/09/13 05:33:41;;;;;;;2.60;1.77;;;13.80;99.90;;;;;;5026908;28;20184;-78
2022/09/13 05:36:06;;;;;;;2.40;1.97;;;13.80;99.90;;;;;;5027803;28;20502;-77
2022/09/13 05:38:32;;;;;;;8.03;2.57;;;13.80;99.90;;;;;;5026465;28;20452;-77
2022/09/13 05:41:00;;;;;;;4.80;2.43;;;13.80;99.90;;;;;;5027673;28;20836;-77
2022/09/13 05:43:29;;;;;;;2.50;1.50;;;13.80;99.90;;;;;;5027912;28;20442;-76
2022/09/13 05:46:02;;;;;;;3.23;1.80;;;13.80;99.90;;;;;;5026076;28;20475;-77
2022/09/13 05:48:28;;;;;;;2.60;2.40;;;13.80;99.90;;;;;;5026606;28;20851;-77
2022/09/13 05:50:54;;;;;;;2.97;2.43;;;13.80;99.90;;;;;;5028009;28;20450;-77
2022/09/13 05:53:19;;;;;;;3.70;2.30;;;13.80;99.90;;;;;;5028100;28;20483;-77
2022/09/13 05:55:45;;;;;;;4.20;2.20;;;14.00;99.90;;;;;;5026497;28;20192;-78
2022/09/13 05:58:10;;;;;;;2.30;1.77;;;13.90;99.90;;;;;;5010150;28;20653;-77
2022/09/13 06:00:36;;;;;;;4.43;1.70;;;14.00;99.90;;;;;;5010224;28;20203;-77
2022/09/13 06:03:02;;;;;;;4.63;2.10;;;14.20;99.90;;;;;;5026087;28;20204;-77
2022/09/13 06:05:28;;;;;;;6.80;1.90;;;14.30;99.90;;;;;;5027968;28;20828;-76
2022/09/13 06:07:53;;;;;;;3.40;1.80;;;14.30;99.90;;;;;;5027921;28;20185;-77
2022/09/13 06:10:19;;;;;;;1.80;1.70;;;14.50;99.90;;;;;;5026545;28;20215;-77
2022/09/13 06:12:46;;;;;;;1.80;1.50;;;14.60;99.90;;;;;;5026254;28;20227;-77
2022/09/13 06:15:11;;;;;;;3.07;2.47;;;14.90;99.90;;;;;;5027606;28;20190;-77
2022/09/13 06:17:37;;;;;;;7.73;2.40;;;15.10;99.90;;;;;;5026038;28;20428;-78
2022/09/13 06:20:03;;;;;;;5.60;2.17;;;15.20;99.90;;;;;;5027641;28;20659;-78
2022/09/13 06:22:32;;;;;;;5.20;2.00;;;15.20;99.90;;;;;;5026221;28;20286;-77
2022/09/13 06:24:58;;;;;;;3.90;2.13;;;15.40;99.90;;;;;;5010360;28;20944;-77
2022/09/13 06:27:24;;;;;;;1.80;1.37;;;15.70;99.90;;;;;;5028322;28;20421;-78
2022/09/13 06:29:49;;;;;;;2.57;1.73;;;15.90;99.90;;;;;;5027815;28;20493;-77
2022/09/13 06:32:15;;;;;;;3.53;2.00;;;16.00;99.90;;;;;;5027662;28;20624;-78
2022/09/13 06:34:41;;;;;;;1.53;1.43;;;16.10;99.90;;;;;;5026301;28;21117;-77
2022/09/13 06:37:07;;;;;;;1.97;1.67;;;16.20;99.90;;;;;;5026580;28;20220;-78
2022/09/13 06:39:33;;;;;;;2.00;1.80;;;16.20;99.90;;;;;;5027663;28;20193;-77
2022/09/13 06:41:59;;;;;;;2.03;1.60;;;16.30;99.90;;;;;;5009712;28;20202;-78
2022/09/13 06:44:24;;;;;;;4.00;1.77;;;16.30;99.90;;;;;;5028090;28;20988;-78
2022/09/13 06:46:50;;;;;;;1.80;1.70;;;16.30;99.90;;;;;;5026861;28;20476;-78
2022/09/13 06:49:15;;;;;;;3.30;1.70;;;16.30;99.90;;;;;;5026474;28;20220;-79
2022/09/13 06:51:41;;;;;;;6.40;1.80;;;16.30;99.90;;;;;;5027931;28;20281;-78
2022/09/13 06:54:07;;;;;;;3.57;1.37;;;16.30;99.90;;;;;;5028006;28;20209;-78
2022/09/13 06:56:35;;;;;;;2.43;2.00;;;16.20;99.90;;;;;;5026832;28;20227;-78
2022/09/13 06:59:04;;;;;;;2.13;1.93;;;16.20;99.90;;;;;;5028099;28;20246;-78
2022/09/13 07:01:38;;;;;;;2.70;2.00;;;16.20;99.90;;;;;;5026242;28;20480;-78
2022/09/13 07:04:13;;;;;;;3.50;2.20;;;16.30;99.90;;;;;;5028018;28;20491;-78
2022/09/13 07:06:41;;;;;;;2.80;2.17;;;16.30;99.90;;;;;;5026648;28;20457;-77
2022/09/13 07:09:09;;;;;;;4.40;1.90;;;16.40;99.90;;;;;;5030228;28;20793;-78
2022/09/13 07:11:38;;;;;;;6.07;2.03;;;16.40;99.90;;;;;;5029769;28;20539;-77
2022/09/13 07:14:08;;;;;;;5.00;3.00;;;16.40;99.90;;;;;;5013431;28;21228;-78
2022/09/13 07:16:36;;;;;;;4.77;2.03;;;16.50;99.90;;;;;;5029332;28;20960;-78
2022/09/13 07:19:07;;;;;;;9.50;1.77;;;16.50;99.90;;;;;;5031901;28;20902;-78
2022/09/13 07:21:34;;;;;;;3.40;2.00;;;16.60;99.90;;;;;;5031346;28;20444;-78
2022/09/13 07:24:00;;;;;;;2.27;1.70;;;16.60;99.90;;;;;;5031861;28;20430;-78
2022/09/13 07:26:26;;;;;;;3.47;1.63;;;16.70;99.90;;;;;;5030557;28;20469;-78
2022/09/13 07:28:54;;;;;;;4.07;1.70;;;16.80;99.90;;;;;;5030642;28;20414;-78
2022/09/13 07:31:24;;;;;;;3.10;1.47;;;16.90;99.90;;;;;;5030299;28;20425;-78
2022/09/13 07:33:56;;;;;;;4.63;1.60;;;17.10;99.90;;;;;;5028800;28;20431;-79
2022/09/13 07:36:23;;;;;;;3.20;1.50;;;17.20;99.90;;;;;;5030373;28;20934;-78
2022/09/13 07:38:48;;;;;;;2.70;1.70;;;17.30;99.90;;;;;;5030103;28;20441;-78
2022/09/13 07:41:16;;;;;;;2.03;1.53;;;17.40;99.90;;;;;;5012210;28;20419;-78
2022/09/13 07:43:42;;;;;;;5.23;1.93;;;17.60;99.90;;;;;;5029201;28;20189;-79
2022/09/13 07:46:13;;;;;;;2.53;1.90;;;17.70;99.90;;;;;;5018203;28;20505;-80
2022/09/13 07:48:41;;;;;;;2.77;1.20;;;17.80;99.90;;;;;;5037803;28;20797;-79
2022/09/13 07:51:10;;;;;;;3.27;1.70;;;17.90;99.90;;;;;;5031802;28;20928;-79
2022/09/13 07:53:38;;;;;;;1.97;1.60;;;18.10;99.90;;;;;;5035488;28;20426;-79
2022/09/13 07:56:11;;;;;;;1.93;1.47;;;18.10;99.90;;;;;;5021304;28;20418;-80
2022/09/13 07:58:38;;;;;;;2.10;1.40;;;18.30;99.90;;;;;;5034492;28;20494;-80
2022/09/13 08:01:07;;;;;;;2.40;1.67;;;18.40;99.90;;;;;;5030998;28;20531;-80
2022/09/13 08:03:34;;;;;;;3.00;1.40;;;18.40;99.90;;;;;;5028870;28;20430;-80
2022/09/13 08:06:00;;;;;;;1.47;1.37;;;18.60;99.90;;;;;;5030830;28;20539;-79
2022/09/13 08:08:27;;;;;;;2.93;1.53;;;18.70;99.90;;;;;;5031674;28;20528;-80
2022/09/13 08:10:54;;;;;;;10.73;1.53;;;18.80;99.90;;;;;;5032957;28;20511;-79
2022/09/13 08:13:20;;;;;;;7.93;1.80;;;19.00;99.90;;;;;;5032236;28;20613;-79
2022/09/13 08:15:46;;;;;;;4.30;1.77;;;19.20;99.90;;;;;;5029506;28;20513;-79
2022/09/13 08:18:11;;;;;;;2.30;1.23;;;19.40;99.90;;;;;;5028538;28;20185;-79
2022/09/13 08:20:40;;;;;;;2.80;1.57;;;19.60;99.90;;;;;;5029820;28;20195;-80
2022/09/13 08:23:07;;;;;;;4.30;1.40;;;19.90;99.90;;;;;;5029452;28;20204;-79
2022/09/13 08:25:33;;;;;;;3.60;1.37;;;20.10;99.90;;;;;;5029549;28;20464;-80
2022/09/13 08:28:00;;;;;;;1.70;1.23;;;20.40;99.90;;;;;;5027775;28;20419;-79
2022/09/13 08:30:32;;;;;;;4.50;1.50;;;20.60;99.90;;;;;;5030425;28;20411;-79
2022/09/13 08:32:59;;;;;;;3.03;1.20;;;20.80;99.90;;;;;;5028998;28;20809;-80
2022/09/13 08:35:24;;;;;;;3.10;1.70;;;21.00;99.90;;;;;;5027848;28;20430;-79
2022/09/13 08:37:50;;;;;;;2.13;1.47;;;21.20;99.90;;;;;;4995141;28;20526;-80
2022/09/13 08:40:16;;;;;;;1.70;1.60;;;21.30;99.90;;;;;;4995571;28;20303;-80
2022/09/13 08:42:55;;;;;;;2.30;1.50;;;21.50;99.90;;;;;;5027910;28;20204;-80
2022/09/13 08:45:22;;;;;;;1.83;1.30;;;21.70;99.90;;;;;;5028287;28;20426;-79
2022/09/13 08:47:57;;;;;;;6.47;1.33;;;21.70;99.90;;;;;;5027884;28;20431;-79
2022/09/13 08:50:28;;;;;;;2.30;1.33;;;21.90;99.90;;;;;;5028235;28;20421;-81
2022/09/13 08:53:22;;;;;;;2.33;1.60;;;22.00;99.90;;;;;;5027795;28;20450;-80
2022/09/13 08:56:07;;;;;;;5.90;1.47;;;22.20;99.90;;;;;;5027426;28;20451;-79
2022/09/13 08:58:45;;;;;;;7.10;1.77;;;22.40;99.90;;;;;;5029095;28;21098;-79
2022/09/13 09:01:25;;;;;;;5.17;1.33;;;22.60;99.90;;;;;;5027566;28;21014;-79
2022/09/13 09:03:58;;;;;;;1.60;1.30;;;22.70;99.90;;;;;;5029108;28;20787;-79
2022/09/13 09:06:24;;;;;;;4.27;1.70;;;22.90;99.90;;;;;;5029702;28;21039;-79
2022/09/13 09:09:03;;;;;;;4.10;1.50;;;23.10;99.90;;;;;;5028854;28;20433;-79
2022/09/13 09:12:00;;;;;;;1.40;1.27;;;23.30;99.90;;;;;;5027697;28;20436;-80
2022/09/13 09:14:30;;;;;;;2.00;1.10;;;23.70;99.90;;;;;;5029067;28;20431;-79
2022/09/13 09:17:20;;;;;;;10.23;1.50;;;24.20;99.90;;;;;;5027775;28;21011;-79
2022/09/13 09:19:50;;;;;;;1.57;1.20;;;24.40;99.90;;;;;;5027940;28;20456;-80
2022/09/13 09:22:18;;;;;;;2.67;1.27;;;24.50;99.90;;;;;;5029497;28;20441;-79
2022/09/13 09:24:53;;;;;;;1.40;1.30;;;24.60;99.90;;;;;;5030033;28;20431;-78
2022/09/13 09:27:20;;;;;;;2.83;1.13;;;24.60;99.90;;;;;;5028876;28;20460;-79
2022/09/13 09:29:49;;;;;;;1.97;1.40;;;24.50;99.90;;;;;;5028809;28;20429;-79
2022/09/13 09:32:24;;;;;;;1.63;1.10;;;24.40;99.90;;;;;;5029686;28;20445;-78
2022/09/13 09:35:14;;;;;;;1.97;1.30;;;25.00;99.90;;;;;;5031248;28;20402;-79
2022/09/13 09:37:42;;;;;;;3.00;1.97;;;25.20;99.90;;;;;;5030045;28;20417;-78
2022/09/13 09:40:12;;;;;;;1.27;1.17;;;25.30;99.40;;;;;;5029985;28;20417;-79
2022/09/13 09:42:43;;;;;;;2.50;1.40;;;25.70;99.90;;;;;;5030425;28;20430;-79
2022/09/13 09:45:30;;;;;;;2.33;1.20;;;26.30;98.70;;;;;;5011912;28;20440;-80
2022/09/13 09:48:01;;;;;;;5.80;1.20;;;26.90;96.40;;;;;;5028226;28;20419;-79
2022/09/13 09:50:31;;;;;;;1.83;1.63;;;27.50;94.10;;;;;;5011854;28;20419;-80
2022/09/13 09:53:07;;;;;;;6.63;1.10;;;27.70;93.20;;;;;;5029807;28;20796;-79
2022/09/13 09:55:52;;;;;;;2.20;1.20;;;27.90;91.80;;;;;;5030127;28;20457;-79
2022/09/13 09:58:35;;;;;;;2.63;1.00;;;27.40;91.20;;;;;;5029796;28;20417;-79
2022/09/13 10:01:00;;;;;;;2.70;1.10;;;27.20;93.70;;;;;;5028280;28;20431;-79
2022/09/13 10:03:32;;;;;;;2.53;1.50;;;27.40;92.20;;;;;;5012786;28;20444;-80
2022/09/13 10:06:20;;;;;;;1.13;1.03;;;27.30;92.90;;;;;;5031030;28;20306;-84
2022/09/13 10:08:59;;;;;;;1.30;1.20;;;27.20;94.70;;;;;;5029847;28;20433;-80
2022/09/13 10:11:48;;;;;;;2.90;1.10;;;27.30;96.20;;;;;;5027443;28;20426;-81
2022/09/13 10:14:35;;;;;;;1.67;1.40;;;27.70;93.50;;;;;;5028363;28;20489;-81
2022/09/13 10:17:12;;;;;;;3.53;1.10;;;27.90;94.00;;;;;;5027568;28;20431;-81
2022/09/13 10:19:37;;;;;;;1.80;1.10;;;28.00;92.30;;;;;;5027514;28;20814;-79
2022/09/13 10:22:09;;;;;;;1.80;1.00;;;28.20;92.80;;;;;;5027760;28;20439;-82
2022/09/13 10:24:34;;;;;;;3.57;1.20;;;28.30;91.80;;;;;;5028799;28;20200;-82
2022/09/13 10:27:02;;;;;;;2.00;1.20;;;28.60;93.10;;;;;;5027455;28;20495;-81
2022/09/13 10:29:30;;;;;;;3.33;1.10;;;29.20;92.80;;;;;;5027833;28;20200;-83
2022/09/13 10:31:57;;;;;;;3.40;1.60;;;29.10;91.30;;;;;;5027425;28;20450;-80
2022/09/13 10:34:28;;;;;;;3.07;1.17;;;28.70;90.40;;;;;;5010786;28;21074;-80
2022/09/13 10:37:19;;;;;;;1.83;1.50;;;28.30;92.50;;;;;;5027431;28;20992;-80
2022/09/13 10:40:26;;;;;;;4.30;1.53;;;28.20;92.30;;;;;;5029003;28;20415;-80
2022/09/13 10:42:58;;;;;;;4.03;1.60;;;28.20;91.10;;;;;;5016549;28;20562;-80
2022/09/13 10:45:26;;;;;;;3.60;1.30;;;28.10;91.30;;;;;;5030349;28;20836;-78
2022/09/13 10:47:54;;;;;;;4.07;1.50;;;28.30;90.40;;;;;;5014637;28;20421;-78
2022/09/13 10:50:20;;;;;;;5.03;1.40;;;28.50;89.70;;;;;;5032222;28;20442;-78
2022/09/13 10:52:51;;;;;;;1.93;1.20;;;29.00;88.90;;;;;;5032136;28;20469;-80
2022/09/13 10:55:17;;;;;;;2.20;1.30;;;29.20;89.00;;;;;;5030985;28;20184;-80
2022/09/13 10:57:44;;;;;;;6.47;1.50;;;29.60;87.10;;;;;;5030765;28;20464;-80
2022/09/13 11:00:13;;;;;;;7.10;1.30;;;30.00;85.80;;;;;;5032352;28;20447;-79
2022/09/13 11:03:03;;;;;;;4.83;1.03;;;30.00;87.90;;;;;;5032025;28;20439;-79
2022/09/13 11:05:38;;;;;;;9.73;1.50;;;29.90;84.80;;;;;;5031733;28;20454;-80
2022/09/13 11:08:28;;;;;;;4.17;1.37;;;29.90;82.20;;;;;;5032051;28;20934;-80
2022/09/13 11:11:09;;;;;;;2.80;1.30;;;30.00;83.50;;;;;;5031798;28;20410;-80
2022/09/13 11:13:41;;;;;;;1.53;1.33;;;30.40;82.40;;;;;;5031645;28;20507;-80
2022/09/13 11:16:44;;;;;;;2.50;1.43;;;30.20;83.00;;;;;;5030083;28;20851;-80
2022/09/13 11:19:36;;;;;;;1.40;1.30;;;29.80;82.10;;;;;;5029931;28;20414;-81
2022/09/13 11:22:07;;;;;;;3.83;1.10;;;29.60;83.50;;;;;;5030251;28;20443;-80
2022/09/13 11:24:54;;;;;;;2.70;1.40;;;29.70;82.90;;;;;;5033946;28;20453;-79
2022/09/13 11:27:31;;;;;;;1.97;1.30;;;29.80;83.00;;;;;;5032569;28;20495;-80
2022/09/13 11:30:09;;;;;;;4.40;1.40;;;30.00;82.00;;;;;;5033930;28;20859;-81
2022/09/13 11:32:38;;;;;;;1.63;1.10;;;29.90;81.50;;;;;;5033078;28;20437;-80
2022/09/13 11:35:41;;;;;;;2.20;1.10;;;29.90;80.60;;;;;;5033015;28;20467;-81
2022/09/13 11:38:40;;;;;;;2.57;1.20;;;29.70;81.60;;;;;;5032306;28;20474;-80
2022/09/13 11:41:58;;;;;;;2.37;1.17;;;29.60;84.40;;;;;;5032180;28;20451;-78
2022/09/13 11:44:31;;;;;;;2.27;1.30;;;29.60;80.60;;;;;;4989801;28;20428;-79
2022/09/13 11:47:48;;;;;;;4.20;1.03;;;29.60;80.60;;;;;;4989435;28;20476;-79
2022/09/13 11:50:47;;;;;;;3.33;1.70;;;29.50;82.60;;;;;;4998200;28;20425;-81
2022/09/13 11:53:51;;;;;;;1.73;1.30;;;29.50;82.50;;;;;;5030972;28;20434;-78
2022/09/13 11:56:45;;;;;;;2.00;1.63;;;29.70;81.00;;;;;;4988769;28;20854;-79
2022/09/13 11:59:48;;;;;;;1.63;1.00;;;29.40;80.80;;;;;;5026654;28;20438;-79
2022/09/13 12:02:19;;;;;;;2.53;1.40;;;29.30;81.80;;;;;;5031034;28;20524;-79
2022/09/13 12:04:58;;;;;;;1.10;1.00;;;29.50;81.40;;;;;;5030894;28;20430;-79
2022/09/13 12:07:48;;;;;;;2.10;1.20;;;29.70;80.40;;;;;;5029986;28;20465;-79
2022/09/13 12:10:49;;;;;;;2.50;1.33;;;30.10;78.00;;;;;;5030994;28;20410;-80
2022/09/13 12:13:29;;;;;;;4.20;1.40;;;30.00;77.50;;;;;;5007469;28;20465;-79
2022/09/13 12:16:04;;;;;;;4.10;1.00;;;29.80;79.90;;;;;;5030875;28;20458;-79
2022/09/13 12:18:44;;;;;;;1.77;1.00;;;29.40;81.00;;;;;;5029131;28;20495;-79
2022/09/13 12:21:13;;;;;;;3.73;1.30;;;29.10;81.40;;;;;;5030376;28;20427;-81
2022/09/13 12:24:04;;;;;;;1.40;0.93;;;28.80;83.10;;;;;;5012184;28;20422;-78
2022/09/13 12:26:32;;;;;;;2.00;0.90;;;28.60;83.20;;;;;;5028336;28;20463;-79
2022/09/13 12:29:14;;;;;;;1.90;1.00;;;28.80;83.20;;;;;;5030094;28;20416;-79
2022/09/13 12:31:40;;;;;;;4.03;1.70;;;28.90;82.70;;;;;;5030287;28;20432;-79
2022/09/13 12:34:10;;;;;;;1.93;0.80;;;29.20;82.30;;;;;;5028178;28;20797;-80
2022/09/13 12:37:00;;;;;;;1.57;1.00;;;29.30;80.60;;;;;;5028947;28;20725;-79
2022/09/13 12:39:34;;;;;;;0.93;0.83;;;29.30;79.40;;;;;;5030172;28;20453;-79
2022/09/13 12:42:19;;;;;;;3.80;1.17;;;29.30;79.40;;;;;;5028400;28;20481;-80
2022/09/13 12:44:50;;;;;;;1.40;1.00;;;29.10;79.10;;;;;;5029712;28;20420;-79
2022/09/13 12:47:58;;;;;;;2.90;0.90;;;29.30;80.10;;;;;;5029457;28;20564;-80
2022/09/13 12:50:52;;;;;;;1.70;0.97;;;29.60;78.00;;;;;;5019552;28;20426;-80
2022/09/13 12:53:42;;;;;;;5.50;1.00;;;29.70;77.70;;;;;;4975136;28;21158;-79
2022/09/13 12:56:20;;;;;;;3.60;0.90;;;29.40;77.00;;;;;;5027533;28;20918;-80
2022/09/13 12:59:02;;;;;;;3.23;1.03;;;29.20;76.20;;;;;;5027709;28;20432;-80
2022/09/13 13:01:31;;;;;;;5.03;1.20;;;28.90;76.40;;;;;;5028860;28;20473;-80
2022/09/13 13:04:17;;;;;;;1.63;0.73;;;28.60;75.40;;;;;;5027310;28;20439;-80
2022/09/13 13:06:49;;;;;;;2.73;0.77;;;28.30;74.90;;;;;;5028565;28;20844;-79
2022/09/13 13:09:41;;;;;;;4.80;1.23;;;28.10;76.90;;;;;;5028941;28;20434;-79
2022/09/13 13:12:27;;;;;;;1.83;1.00;;;28.00;76.50;;;;;;5020440;28;20459;-78
2022/09/13 13:14:54;;;;;;;1.30;0.93;;;27.80;79.20;;;;;;5016939;28;20430;-80
2022/09/13 13:17:37;;;;;;;2.80;0.80;;;27.50;78.50;;;;;;5026957;28;20470;-78
2022/09/13 13:20:41;;;;;;;1.87;0.70;;;27.50;80.50;;;;;;5028558;28;20416;-78
2022/09/13 13:23:26;;;;;;;1.70;1.37;;;27.40;77.70;;;;;;5028901;28;20430;-79